createdAt,value
2023-02-06T00:01:15.016Z,90.90
2023-02-06T00:03:42.223Z,91.30
2023-02-06T00:06:09.496Z,90.90
2023-02-06T00:08:36.859Z,90.80
2023-02-06T00:11:07.363Z,90.80
2023-02-06T00:13:36.113Z,90.70
2023-02-06T00:16:04.160Z,90.80
2023-02-06T00:18:31.643Z,91.10
2023-02-06T00:20:58.792Z,90.40
2023-02-06T00:23:26.085Z,90.80
2023-02-06T00:25:53.264Z,90.80
2023-02-06T00:28:20.453Z,90.90
2023-02-06T00:30:48.189Z,90.90
2023-02-06T00:33:15.581Z,90.90
2023-02-06T00:35:42.778Z,90.90
2023-02-06T00:38:11.333Z,90.90
2023-02-06T00:40:38.796Z,90.60
2023-02-06T00:43:06.374Z,90.90
2023-02-06T00:45:34.276Z,90.90
2023-02-06T00:48:01.962Z,90.90
2023-02-06T00:50:30.168Z,90.90
2023-02-06T00:52:57.457Z,90.90
2023-02-06T00:55:24.614Z,90.90
2023-02-06T00:57:51.951Z,90.90
2023-02-06T01:00:19.440Z,90.90
2023-02-06T01:02:46.664Z,90.90
2023-02-06T01:05:14.601Z,90.90
2023-02-06T01:07:41.760Z,90.90
2023-02-06T01:10:10.136Z,91.00
2023-02-06T01:12:37.370Z,90.90
2023-02-06T01:15:07.016Z,90.90
2023-02-06T01:17:34.566Z,90.90
2023-02-06T01:20:02.104Z,91.00
2023-02-06T01:22:29.434Z,90.90
2023-02-06T01:24:56.572Z,90.80
2023-02-06T01:27:23.780Z,90.80
2023-02-06T01:29:51.038Z,90.80
2023-02-06T01:32:18.314Z,90.80
2023-02-06T01:34:46.263Z,90.80
2023-02-06T01:37:13.694Z,90.80
2023-02-06T01:39:40.861Z,90.50
2023-02-06T01:42:13.405Z,90.80
2023-02-06T01:44:41.791Z,90.80
2023-02-06T01:47:10.787Z,90.80
2023-02-06T01:49:47.981Z,90.50
2023-02-06T01:52:18.169Z,90.80
2023-02-06T01:54:50.211Z,90.90
2023-02-06T01:57:19.061Z,90.80
2023-02-06T01:59:52.111Z,90.90
2023-02-06T02:02:19.838Z,91.10
2023-02-06T02:04:47.284Z,91.10
2023-02-06T02:07:23.041Z,91.30
2023-02-06T02:09:50.216Z,91.30
2023-02-06T02:12:18.429Z,91.30
2023-02-06T02:14:46.864Z,91.30
2023-02-06T02:17:32.153Z,91.40
2023-02-06T02:20:17.590Z,91.50
2023-02-06T02:22:50.614Z,91.40
2023-02-06T02:25:55.664Z,91.60
2023-02-06T02:28:37.144Z,91.60
2023-02-06T02:31:16.136Z,91.60
2023-02-06T02:34:10.505Z,91.60
2023-02-06T02:36:50.216Z,91.60
2023-02-06T02:39:52.844Z,91.70
2023-02-06T02:43:01.325Z,91.70
2023-02-06T02:46:15.153Z,91.80
2023-02-06T02:48:46.094Z,91.90
2023-02-06T02:51:14.117Z,92.10
2023-02-06T02:53:41.877Z,92.10
2023-02-06T02:56:22.244Z,92.00
2023-02-06T02:58:58.535Z,91.90
2023-02-06T03:01:35.307Z,91.90
2023-02-06T03:04:24.576Z,91.80
2023-02-06T03:07:24.506Z,91.70
2023-02-06T03:10:12.480Z,91.70
2023-02-06T03:12:49.276Z,91.50
2023-02-06T03:15:54.081Z,91.50
2023-02-06T03:18:28.866Z,91.50
2023-02-06T03:20:58.724Z,91.50
2023-02-06T03:23:31.480Z,91.60
2023-02-06T03:26:01.897Z,91.60
2023-02-06T03:28:34.265Z,91.70
2023-02-06T03:31:05.660Z,91.70
2023-02-06T03:33:37.839Z,91.90
2023-02-06T03:36:05.584Z,92.00
2023-02-06T03:38:33.245Z,92.00
2023-02-06T03:41:01.248Z,92.10
2023-02-06T03:43:30.091Z,92.30
2023-02-06T03:46:04.245Z,92.40
2023-02-06T03:48:39.584Z,92.50
2023-02-06T03:51:28.297Z,92.60
2023-02-06T03:53:58.242Z,92.80
2023-02-06T03:56:43.231Z,92.70
2023-02-06T03:59:10.758Z,92.70
2023-02-06T04:01:47.817Z,92.70
2023-02-06T04:04:20.433Z,92.60
2023-02-06T04:06:47.690Z,92.60
2023-02-06T04:09:14.913Z,92.50
2023-02-06T04:11:42.107Z,92.40
2023-02-06T04:14:09.323Z,92.30
2023-02-06T04:16:36.461Z,92.20
2023-02-06T04:19:03.664Z,92.10
2023-02-06T04:21:30.808Z,92.00
2023-02-06T04:23:57.964Z,92.00
2023-02-06T04:26:25.197Z,92.10
2023-02-06T04:28:52.321Z,92.20
2023-02-06T04:31:19.559Z,92.30
2023-02-06T04:33:46.773Z,92.30
2023-02-06T04:36:14.013Z,92.40
2023-02-06T04:38:41.219Z,92.40
2023-02-06T04:41:08.464Z,92.30
2023-02-06T04:43:35.735Z,92.40
2023-02-06T04:46:02.948Z,92.40
2023-02-06T04:48:30.125Z,92.50
2023-02-06T04:50:57.334Z,92.50
2023-02-06T04:53:24.514Z,92.60
2023-02-06T04:55:51.706Z,92.60
2023-02-06T04:58:18.813Z,92.60
2023-02-06T05:00:46.148Z,92.70
2023-02-06T05:03:13.310Z,92.70
2023-02-06T05:05:40.447Z,92.60
2023-02-06T05:08:07.673Z,92.50
2023-02-06T05:10:34.861Z,92.10
2023-02-06T05:13:02.798Z,92.50
2023-02-06T05:15:29.954Z,92.50
2023-02-06T05:17:57.196Z,92.50
2023-02-06T05:20:24.428Z,92.40
2023-02-06T05:22:51.636Z,92.90
2023-02-06T05:25:18.816Z,92.40
2023-02-06T05:27:45.974Z,92.40
2023-02-06T05:30:14.070Z,92.40
2023-02-06T05:32:41.392Z,92.40
2023-02-06T05:35:09.097Z,92.40
2023-02-06T05:37:38.461Z,92.40
2023-02-06T05:40:06.494Z,92.40
2023-02-06T05:42:33.889Z,92.50
2023-02-06T05:45:01.073Z,92.50
2023-02-06T05:47:28.276Z,92.50
2023-02-06T05:49:55.443Z,92.40
2023-02-06T05:52:22.612Z,92.30
2023-02-06T05:54:49.852Z,92.30
2023-02-06T05:57:17.082Z,92.30
2023-02-06T05:59:44.280Z,92.40
2023-02-06T06:02:11.511Z,92.40
2023-02-06T06:04:38.753Z,92.40
2023-02-06T06:07:06.346Z,92.40
2023-02-06T06:09:33.595Z,92.10
2023-02-06T06:12:00.878Z,92.40
2023-02-06T06:14:28.322Z,92.40
2023-02-06T06:16:55.478Z,92.40
2023-02-06T06:19:22.677Z,92.40
2023-02-06T06:21:49.856Z,92.50
2023-02-06T06:24:17.140Z,92.50
2023-02-06T06:26:44.291Z,92.50
2023-02-06T06:29:11.493Z,92.50
2023-02-06T06:31:38.815Z,92.40
2023-02-06T06:34:06.045Z,92.70
2023-02-06T06:36:33.222Z,92.30
2023-02-06T06:39:00.441Z,92.30
2023-02-06T06:41:27.852Z,92.30
2023-02-06T06:43:56.644Z,92.30
2023-02-06T06:46:23.916Z,92.30
2023-02-06T06:48:51.363Z,92.30
2023-02-06T06:51:18.550Z,92.00
2023-02-06T06:53:45.771Z,92.40
2023-02-06T06:56:14.484Z,92.50
2023-02-06T06:58:42.104Z,92.60
2023-02-06T07:01:09.463Z,92.40
2023-02-06T07:03:36.943Z,92.90
2023-02-06T07:06:05.435Z,92.80
2023-02-06T07:08:32.686Z,92.80
2023-02-06T07:10:59.905Z,92.70
2023-02-06T07:13:27.751Z,92.70
2023-02-06T07:15:54.933Z,92.70
2023-02-06T07:18:22.326Z,92.50
2023-02-06T07:20:51.323Z,92.00
2023-02-06T07:23:18.581Z,92.30
2023-02-06T07:25:45.782Z,92.20
2023-02-06T07:28:13.000Z,92.50
2023-02-06T07:30:40.287Z,92.10
2023-02-06T07:33:07.617Z,92.00
2023-02-06T07:35:35.122Z,92.00
2023-02-06T07:38:02.523Z,91.90
2023-02-06T07:40:44.020Z,92.00
2023-02-06T07:43:12.875Z,91.90
2023-02-06T07:45:40.180Z,91.90
2023-02-06T07:48:07.726Z,92.00
2023-02-06T07:50:35.092Z,91.80
2023-02-06T07:53:02.569Z,92.20
2023-02-06T07:55:29.974Z,92.10
2023-02-06T07:57:57.219Z,92.20
2023-02-06T08:00:24.595Z,91.80
2023-02-06T08:02:51.893Z,92.20
2023-02-06T08:05:19.207Z,92.20
2023-02-06T08:07:46.787Z,92.30
2023-02-06T08:10:13.962Z,91.90
2023-02-06T08:12:41.099Z,92.20
2023-02-06T08:15:08.896Z,92.00
2023-02-06T08:17:36.139Z,91.90
2023-02-06T08:20:03.562Z,91.70
2023-02-06T08:22:30.756Z,91.50
2023-02-06T08:24:57.896Z,91.30
2023-02-06T08:27:25.095Z,91.10
2023-02-06T08:29:52.247Z,91.00
2023-02-06T08:32:19.434Z,90.80
2023-02-06T08:34:46.645Z,90.40
2023-02-06T08:37:13.967Z,90.30
2023-02-06T08:39:41.192Z,90.00
2023-02-06T08:42:08.400Z,89.30
2023-02-06T08:44:35.700Z,89.40
2023-02-06T08:47:09.966Z,88.10
2023-02-06T08:49:38.127Z,85.80
2023-02-06T08:52:05.816Z,84.10
2023-02-06T08:54:35.527Z,82.50
2023-02-06T08:57:03.762Z,80.20
2023-02-06T08:59:31.152Z,70.30
2023-02-06T09:01:58.392Z,58.80
2023-02-06T09:04:28.995Z,57.00
2023-02-06T09:06:56.120Z,59.20
2023-02-06T09:09:23.407Z,62.50
2023-02-06T09:11:50.623Z,65.00
2023-02-06T09:14:18.111Z,66.50
2023-02-06T09:16:45.330Z,67.40
2023-02-06T09:19:13.042Z,68.80
2023-02-06T09:21:40.265Z,70.00
2023-02-06T09:24:08.952Z,70.40
2023-02-06T09:26:58.066Z,69.50
2023-02-06T09:29:28.748Z,67.90
2023-02-06T09:31:57.331Z,67.00
2023-02-06T09:34:25.845Z,67.00
2023-02-06T09:36:57.669Z,66.30
2023-02-06T09:39:25.290Z,65.20
2023-02-06T09:41:58.586Z,65.30
2023-02-06T09:44:30.108Z,66.00
2023-02-06T09:47:18.355Z,66.90
2023-02-06T09:49:49.774Z,60.40
2023-02-06T09:53:03.983Z,57.70
2023-02-06T09:55:58.403Z,54.00
2023-02-06T09:58:58.349Z,50.80
2023-02-06T10:01:40.004Z,45.00
2023-02-06T10:04:30.371Z,41.30
2023-02-06T10:07:17.530Z,34.40
2023-02-06T10:10:27.502Z,34.40
2023-02-06T10:13:13.842Z,29.40
2023-02-06T10:15:47.608Z,27.00
2023-02-06T10:18:20.937Z,24.40
2023-02-06T10:20:59.129Z,22.50
2023-02-06T10:24:03.252Z,23.00
2023-02-06T10:26:30.521Z,23.80
2023-02-06T10:28:59.898Z,25.30
2023-02-06T10:31:36.183Z,27.00
2023-02-06T10:34:38.609Z,28.50
2023-02-06T10:37:37.866Z,27.10
2023-02-06T10:40:10.875Z,26.40
2023-02-06T10:42:46.966Z,24.10
2023-02-06T10:45:55.735Z,21.10
2023-02-06T10:48:58.018Z,18.90
2023-02-06T10:51:32.068Z,17.40
2023-02-06T10:54:11.124Z,16.60
2023-02-06T10:56:46.788Z,16.50
2023-02-06T10:59:27.944Z,16.20
2023-02-06T11:02:28.042Z,17.10
2023-02-06T11:05:07.813Z,16.50
2023-02-06T11:07:41.461Z,16.50
2023-02-06T11:10:16.963Z,15.60
2023-02-06T11:12:49.931Z,14.80
2023-02-06T11:15:27.181Z,14.50
2023-02-06T11:17:55.083Z,13.70
2023-02-06T11:20:30.549Z,14.60
2023-02-06T11:23:19.217Z,16.60
2023-02-06T11:26:10.484Z,18.60
2023-02-06T11:28:48.790Z,21.60
2023-02-06T11:31:18.858Z,25.70
2023-02-06T11:33:54.423Z,22.10
2023-02-06T11:36:28.692Z,18.80
2023-02-06T11:39:02.209Z,16.40
2023-02-06T11:41:31.097Z,18.80
2023-02-06T11:44:06.450Z,18.10
2023-02-06T11:46:36.090Z,16.90
2023-02-06T11:49:26.464Z,15.70
2023-02-06T11:51:56.694Z,15.10
2023-02-06T11:54:28.290Z,13.70
2023-02-06T11:57:07.811Z,12.80
2023-02-06T11:59:53.624Z,13.20
2023-02-06T12:02:36.668Z,16.00
2023-02-06T12:05:18.584Z,15.30
2023-02-06T12:08:02.389Z,14.30
2023-02-06T12:10:34.307Z,13.50
2023-02-06T12:13:25.574Z,12.90
2023-02-06T12:15:57.638Z,12.50
2023-02-06T12:18:29.081Z,12.50
2023-02-06T12:21:32.890Z,12.20
2023-02-06T12:24:04.704Z,12.60
2023-02-06T12:26:35.289Z,12.30
2023-02-06T12:29:34.638Z,11.70
2023-02-06T12:32:16.173Z,12.90
2023-02-06T12:34:53.977Z,16.70
2023-02-06T12:37:37.726Z,19.90
2023-02-06T12:40:13.284Z,18.90
2023-02-06T12:42:52.899Z,17.90
2023-02-06T12:45:32.444Z,16.40
2023-02-06T12:48:12.092Z,16.00
2023-02-06T12:51:05.667Z,15.80
2023-02-06T12:54:00.697Z,15.20
2023-02-06T12:56:35.676Z,15.60
2023-02-06T12:59:57.500Z,15.70
2023-02-06T13:03:03.755Z,15.30
2023-02-06T13:05:37.777Z,16.70
2023-02-06T13:08:12.502Z,17.30
2023-02-06T13:10:40.248Z,17.50
2023-02-06T13:13:29.466Z,17.30
2023-02-06T13:16:00.279Z,17.10
2023-02-06T13:18:42.357Z,17.00
2023-02-06T13:21:21.963Z,16.60
2023-02-06T13:24:13.448Z,16.00
2023-02-06T13:26:48.781Z,16.20
2023-02-06T13:29:33.484Z,16.20
2023-02-06T13:32:18.220Z,16.60
2023-02-06T13:35:04.155Z,17.30
2023-02-06T13:37:33.646Z,17.30
2023-02-06T13:40:22.705Z,17.00
2023-02-06T13:43:11.125Z,17.50
2023-02-06T13:45:45.645Z,18.30
2023-02-06T13:48:46.676Z,18.20
2023-02-06T13:51:37.356Z,18.10
2023-02-06T13:54:31.366Z,18.20
2023-02-06T13:57:04.825Z,18.40
2023-02-06T13:59:38.300Z,18.40
2023-02-06T14:02:35.026Z,18.20
2023-02-06T14:05:06.149Z,18.60
2023-02-06T14:07:45.136Z,19.00
2023-02-06T14:10:33.370Z,19.40
2023-02-06T14:13:31.353Z,20.40
2023-02-06T14:16:27.709Z,20.10
2023-02-06T14:19:02.783Z,20.20
2023-02-06T14:21:37.323Z,20.20
2023-02-06T14:24:23.019Z,21.00
2023-02-06T14:26:55.206Z,21.70
2023-02-06T14:29:44.055Z,21.90
2023-02-06T14:32:40.662Z,22.30
2023-02-06T14:35:35.897Z,23.00
2023-02-06T14:38:16.344Z,23.20
2023-02-06T14:40:48.870Z,23.60
2023-02-06T14:43:21.401Z,23.60
2023-02-06T14:46:06.217Z,23.60
2023-02-06T14:48:45.583Z,24.30
2023-02-06T14:51:39.554Z,25.20
2023-02-06T14:54:31.537Z,26.10
2023-02-06T14:57:00.864Z,26.40
2023-02-06T14:59:29.130Z,26.70
2023-02-06T15:01:58.224Z,27.00
2023-02-06T15:04:28.465Z,26.70
2023-02-06T15:06:57.055Z,27.60
2023-02-06T15:09:36.389Z,28.50
2023-02-06T15:12:19.003Z,29.10
2023-02-06T15:14:55.789Z,30.20
2023-02-06T15:17:26.780Z,31.80
2023-02-06T15:19:54.054Z,32.90
2023-02-06T15:22:28.537Z,34.30
2023-02-06T15:25:01.493Z,35.10
2023-02-06T15:27:36.988Z,35.80
2023-02-06T15:30:20.378Z,36.70
2023-02-06T15:32:51.124Z,38.30
2023-02-06T15:35:20.234Z,38.70
2023-02-06T15:37:51.215Z,39.60
2023-02-06T15:40:25.569Z,40.20
2023-02-06T15:42:53.515Z,41.80
2023-02-06T15:45:26.317Z,43.80
2023-02-06T15:47:55.000Z,44.20
2023-02-06T15:50:27.958Z,45.50
2023-02-06T15:52:56.023Z,46.60
2023-02-06T15:55:33.788Z,47.70
2023-02-06T15:58:03.860Z,49.30
2023-02-06T16:00:34.428Z,50.30
2023-02-06T16:03:04.764Z,51.70
2023-02-06T16:05:40.461Z,54.10
2023-02-06T16:08:15.973Z,56.00
2023-02-06T16:10:48.287Z,57.90
2023-02-06T16:13:24.794Z,59.60
2023-02-06T16:16:11.507Z,61.80
2023-02-06T16:18:40.229Z,63.50
2023-02-06T16:21:16.512Z,65.20
2023-02-06T16:24:16.594Z,66.60
2023-02-06T16:26:49.440Z,67.80
2023-02-06T16:29:31.471Z,69.50
2023-02-06T16:32:01.515Z,70.70
2023-02-06T16:34:40.993Z,71.60
2023-02-06T16:37:21.994Z,72.80
2023-02-06T16:39:49.640Z,73.70
2023-02-06T16:42:25.980Z,74.30
2023-02-06T16:44:59.276Z,75.10
2023-02-06T16:47:26.561Z,75.70
2023-02-06T16:49:53.826Z,76.00
2023-02-06T16:52:31.666Z,76.60
2023-02-06T16:54:59.910Z,77.00
2023-02-06T16:57:41.578Z,78.20
2023-02-06T17:00:20.506Z,79.10
2023-02-06T17:02:48.793Z,79.70
2023-02-06T17:05:16.238Z,80.30
2023-02-06T17:07:43.810Z,80.80
2023-02-06T17:10:13.683Z,81.10
2023-02-06T17:12:41.735Z,81.20
2023-02-06T17:15:12.482Z,81.30
2023-02-06T17:17:40.344Z,81.50
2023-02-06T17:20:32.056Z,81.60
2023-02-06T17:22:59.324Z,81.80
2023-02-06T17:25:26.524Z,82.30
2023-02-06T17:27:54.559Z,82.70
2023-02-06T17:30:23.588Z,82.80
2023-02-06T17:32:51.199Z,83.00
2023-02-06T17:35:19.277Z,83.00
2023-02-06T17:37:46.673Z,83.10
2023-02-06T17:40:21.758Z,83.30
2023-02-06T17:42:49.405Z,84.00
2023-02-06T17:45:17.063Z,84.00
2023-02-06T17:47:44.549Z,84.40
2023-02-06T17:50:20.843Z,84.90
2023-02-06T17:52:48.928Z,85.70
2023-02-06T17:55:16.685Z,85.70
2023-02-06T17:57:43.941Z,86.00
2023-02-06T18:00:16.234Z,85.70
2023-02-06T18:02:45.720Z,87.00
2023-02-06T18:05:13.083Z,87.20
2023-02-06T18:07:40.955Z,86.80
2023-02-06T18:10:09.398Z,87.10
2023-02-06T18:12:36.978Z,87.50
2023-02-06T18:15:05.424Z,87.80
2023-02-06T18:17:32.661Z,88.00
2023-02-06T18:20:00.010Z,88.10
2023-02-06T18:22:27.412Z,88.80
2023-02-06T18:24:54.706Z,88.80
2023-02-06T18:27:23.032Z,89.00
2023-02-06T18:29:54.744Z,89.40
2023-02-06T18:32:22.044Z,89.10
2023-02-06T18:34:49.230Z,89.30
2023-02-06T18:37:16.624Z,89.50
2023-02-06T18:39:43.761Z,90.00
2023-02-06T18:42:30.410Z,90.00
2023-02-06T18:44:57.641Z,90.10
2023-02-06T18:47:24.838Z,90.10
2023-02-06T18:49:52.041Z,90.00
2023-02-06T18:52:19.261Z,90.40
2023-02-06T18:54:48.260Z,90.40
2023-02-06T18:57:15.473Z,90.40
2023-02-06T18:59:42.827Z,90.50
2023-02-06T19:02:11.838Z,90.30
2023-02-06T19:04:40.548Z,90.30
2023-02-06T19:07:08.856Z,90.30
2023-02-06T19:09:36.037Z,90.10
2023-02-06T19:12:03.700Z,90.40
2023-02-06T19:14:30.924Z,90.30
2023-02-06T19:16:58.466Z,90.20
2023-02-06T19:19:25.786Z,89.80
2023-02-06T19:21:53.119Z,90.20
2023-02-06T19:24:20.364Z,90.20
2023-02-06T19:26:47.576Z,90.30
2023-02-06T19:29:19.325Z,90.50
2023-02-06T19:31:51.171Z,90.50
2023-02-06T19:34:18.415Z,90.50
2023-02-06T19:36:45.618Z,90.50
2023-02-06T19:39:13.524Z,90.60
2023-02-06T19:41:40.751Z,90.60
2023-02-06T19:44:10.453Z,90.70
2023-02-06T19:46:38.626Z,90.70
2023-02-06T19:49:08.557Z,90.90
2023-02-06T19:51:39.213Z,90.50
2023-02-06T19:54:07.338Z,90.90
2023-02-06T19:56:41.156Z,91.00
2023-02-06T19:59:22.995Z,91.00
2023-02-06T20:01:53.271Z,91.20
2023-02-06T20:04:24.782Z,91.40
2023-02-06T20:06:52.567Z,91.50
2023-02-06T20:09:20.849Z,91.70
2023-02-06T20:11:49.006Z,91.70
2023-02-06T20:14:17.230Z,91.80
2023-02-06T20:16:45.671Z,92.00
2023-02-06T20:19:27.951Z,92.10
2023-02-06T20:21:58.674Z,92.50
2023-02-06T20:24:28.241Z,92.80
2023-02-06T20:26:58.149Z,92.80
2023-02-06T20:29:26.764Z,92.90
2023-02-06T20:31:55.249Z,92.80
2023-02-06T20:34:22.655Z,93.00
2023-02-06T20:36:50.521Z,93.10
2023-02-06T20:39:18.479Z,92.50
2023-02-06T20:41:45.952Z,92.80
2023-02-06T20:44:14.163Z,92.60
2023-02-06T20:46:42.607Z,92.90
2023-02-06T20:49:16.169Z,92.50
2023-02-06T20:51:43.649Z,92.50
2023-02-06T20:54:11.638Z,92.40
2023-02-06T20:56:39.780Z,91.90
2023-02-06T20:59:07.901Z,91.70
2023-02-06T21:01:36.028Z,91.80
2023-02-06T21:04:08.438Z,92.00
2023-02-06T21:06:36.861Z,92.00
2023-02-06T21:09:05.830Z,92.00
2023-02-06T21:11:39.466Z,92.20
2023-02-06T21:14:07.181Z,92.20
2023-02-06T21:16:35.724Z,92.10
2023-02-06T21:19:04.760Z,92.00
2023-02-06T21:21:33.148Z,92.10
2023-02-06T21:24:00.399Z,92.00
2023-02-06T21:26:28.423Z,91.90
2023-02-06T21:28:55.838Z,91.70
2023-02-06T21:31:25.481Z,91.50
2023-02-06T21:33:55.427Z,91.20
2023-02-06T21:36:22.894Z,91.30
2023-02-06T21:38:50.169Z,91.30
2023-02-06T21:41:19.032Z,91.30
2023-02-06T21:43:46.439Z,91.40
2023-02-06T21:46:13.718Z,91.50
2023-02-06T21:48:41.487Z,91.50
2023-02-06T21:51:16.423Z,91.50
2023-02-06T21:53:44.639Z,91.80
2023-02-06T21:56:15.704Z,92.10
2023-02-06T21:58:43.430Z,92.00
2023-02-06T22:01:19.403Z,91.70
2023-02-06T22:03:47.222Z,92.10
2023-02-06T22:06:15.247Z,92.10
2023-02-06T22:08:45.877Z,92.30
2023-02-06T22:11:32.126Z,91.70
2023-02-06T22:14:01.388Z,91.90
2023-02-06T22:16:28.721Z,92.00
2023-02-06T22:18:56.529Z,92.30
2023-02-06T22:21:26.279Z,91.80
2023-02-06T22:23:57.458Z,92.30
2023-02-06T22:26:26.260Z,92.50
2023-02-06T22:28:54.128Z,92.50
2023-02-06T22:31:24.058Z,92.60
2023-02-06T22:33:51.591Z,92.70
2023-02-06T22:36:22.000Z,92.40
2023-02-06T22:38:58.320Z,92.20
2023-02-06T22:41:26.093Z,92.20
2023-02-06T22:43:53.350Z,92.20
2023-02-06T22:46:29.546Z,92.20
2023-02-06T22:48:57.181Z,92.20
2023-02-06T22:51:25.038Z,92.10
2023-02-06T22:53:52.765Z,91.90
2023-02-06T22:56:31.947Z,91.80
2023-02-06T22:59:21.068Z,91.80
2023-02-06T23:01:51.182Z,92.30
2023-02-06T23:04:20.839Z,92.00
2023-02-06T23:06:48.939Z,91.90
2023-02-06T23:09:26.518Z,91.70
2023-02-06T23:11:54.574Z,91.80
2023-02-06T23:14:21.775Z,92.00
2023-02-06T23:16:49.022Z,92.10
2023-02-06T23:19:17.381Z,92.20
2023-02-06T23:21:46.185Z,92.10
2023-02-06T23:24:14.178Z,92.20
2023-02-06T23:26:43.179Z,92.20
2023-02-06T23:29:15.615Z,92.20
2023-02-06T23:31:47.187Z,92.40
2023-02-06T23:34:15.806Z,92.50
2023-02-06T23:36:43.278Z,92.60
2023-02-06T23:39:11.977Z,92.30
2023-02-06T23:41:39.540Z,92.60
2023-02-06T23:44:08.537Z,92.70
2023-02-06T23:46:37.656Z,93.00
2023-02-06T23:49:05.856Z,93.10
2023-02-06T23:51:33.457Z,93.10
2023-02-06T23:54:00.882Z,92.80
2023-02-06T23:56:29.810Z,92.80
2023-02-06T23:58:58.473Z,92.80
